createdAt,value
2019-05-09T00:00:09.582Z,93.62
2019-05-09T00:01:09.568Z,93.71
2019-05-09T00:02:09.549Z,94.33
2019-05-09T00:03:09.555Z,93.41
2019-05-09T00:04:09.547Z,93.82
2019-05-09T00:05:09.517Z,93.92
2019-05-09T00:06:09.525Z,93.92
2019-05-09T00:07:09.506Z,93.51
2019-05-09T00:08:09.484Z,93.82
2019-05-09T00:09:09.501Z,93.30
2019-05-09T00:10:09.485Z,93.20
2019-05-09T00:11:09.453Z,94.02
2019-05-09T00:12:09.441Z,93.30
2019-05-09T00:13:09.455Z,93.82
2019-05-09T00:14:09.435Z,93.51
2019-05-09T00:15:09.428Z,93.71
2019-05-09T00:16:09.398Z,93.51
2019-05-09T00:17:09.400Z,93.92
2019-05-09T00:18:09.401Z,93.82
2019-05-09T00:19:09.368Z,93.82
2019-05-09T00:20:09.378Z,92.79
2019-05-09T00:21:09.349Z,92.28
2019-05-09T00:22:09.340Z,92.59
2019-05-09T00:23:09.326Z,93.00
2019-05-09T00:24:09.319Z,93.92
2019-05-09T00:25:09.324Z,92.69
2019-05-09T00:26:09.313Z,92.59
2019-05-09T00:27:09.289Z,91.97
2019-05-09T00:28:09.293Z,92.53
2019-05-09T00:29:09.280Z,92.28
2019-05-09T00:30:09.259Z,92.59
2019-05-09T00:31:09.261Z,92.18
2019-05-09T00:32:09.229Z,92.08
2019-05-09T00:33:09.240Z,92.02
2019-05-09T00:34:09.206Z,91.87
2019-05-09T00:35:09.186Z,92.63
2019-05-09T00:36:09.201Z,93.15
2019-05-09T00:37:09.171Z,92.94
2019-05-09T00:38:09.161Z,92.79
2019-05-09T00:39:09.160Z,92.83
2019-05-09T00:40:09.175Z,92.53
2019-05-09T00:41:09.153Z,92.38
2019-05-09T00:42:09.135Z,92.94
2019-05-09T00:43:09.101Z,92.90
2019-05-09T00:44:09.160Z,92.90
2019-05-09T00:45:09.108Z,92.94
2019-05-09T00:46:09.084Z,92.69
2019-05-09T00:47:09.062Z,92.69
2019-05-09T00:48:09.059Z,92.63
2019-05-09T00:49:09.047Z,92.94
2019-05-09T00:50:09.040Z,92.69
2019-05-09T00:51:09.034Z,92.90
2019-05-09T00:52:09.026Z,92.69
2019-05-09T00:53:08.998Z,92.69
2019-05-09T00:54:08.986Z,92.90
2019-05-09T00:55:08.970Z,92.83
2019-05-09T00:56:08.987Z,92.94
2019-05-09T00:57:08.949Z,92.74
2019-05-09T00:58:08.963Z,92.53
2019-05-09T00:59:08.924Z,92.02
2019-05-09T01:00:08.931Z,92.43
2019-05-09T01:01:08.942Z,92.32
2019-05-09T01:02:08.900Z,92.43
2019-05-09T01:03:08.903Z,92.36
2019-05-09T01:04:08.876Z,92.47
2019-05-09T01:05:08.882Z,92.06
2019-05-09T01:06:08.869Z,92.36
2019-05-09T01:07:08.876Z,92.06
2019-05-09T01:08:08.853Z,92.57
2019-05-09T01:09:08.824Z,92.36
2019-05-09T01:10:08.805Z,92.98
2019-05-09T01:11:12.354Z,92.98
2019-05-09T01:12:09.815Z,92.68
2019-05-09T01:13:08.772Z,92.57
2019-05-09T01:14:08.770Z,92.68
2019-05-09T01:15:08.751Z,92.47
2019-05-09T01:16:08.751Z,92.27
2019-05-09T01:17:08.747Z,92.51
2019-05-09T01:18:08.722Z,92.47
2019-05-09T01:19:08.711Z,92.31
2019-05-09T01:20:08.709Z,92.72
2019-05-09T01:21:08.685Z,92.51
2019-05-09T01:22:08.714Z,92.93
2019-05-09T01:23:08.671Z,92.72
2019-05-09T01:24:08.664Z,92.72
2019-05-09T01:25:08.644Z,92.61
2019-05-09T01:26:08.631Z,92.82
2019-05-09T01:27:08.636Z,93.33
2019-05-09T01:28:08.625Z,94.36
2019-05-09T01:29:08.602Z,93.64
2019-05-09T01:30:08.603Z,94.26
2019-05-09T01:31:08.593Z,94.15
2019-05-09T01:32:08.603Z,94.15
2019-05-09T01:33:08.554Z,94.36
2019-05-09T01:34:08.543Z,93.59
2019-05-09T01:35:08.529Z,94.30
2019-05-09T01:36:08.527Z,92.97
2019-05-09T01:37:08.568Z,92.14
2019-05-09T01:38:08.512Z,92.46
2019-05-09T01:39:08.485Z,92.14
2019-05-09T01:40:08.480Z,91.84
2019-05-09T01:41:22.834Z,92.55
2019-05-09T01:42:09.491Z,92.70
2019-05-09T01:43:08.466Z,92.40
2019-05-09T01:44:08.431Z,92.60
2019-05-09T01:45:08.418Z,92.80
2019-05-09T01:46:08.443Z,92.70
2019-05-09T01:47:08.415Z,93.12
2019-05-09T01:48:08.415Z,92.91
2019-05-09T01:49:08.385Z,93.01
2019-05-09T01:50:08.412Z,92.91
2019-05-09T01:51:08.354Z,93.21
2019-05-09T01:52:08.370Z,92.70
2019-05-09T01:53:08.349Z,93.36
2019-05-09T01:54:08.361Z,93.87
2019-05-09T01:55:08.312Z,94.29
2019-05-09T01:56:08.301Z,93.67
2019-05-09T01:57:08.301Z,94.39
2019-05-09T01:58:08.280Z,93.98
2019-05-09T01:59:08.269Z,93.57
2019-05-09T02:00:08.266Z,93.87
2019-05-09T02:01:08.244Z,94.18
2019-05-09T02:02:08.994Z,94.08
2019-05-09T02:03:08.240Z,94.49
2019-05-09T02:04:08.221Z,93.98
2019-05-09T02:05:08.201Z,93.87
2019-05-09T02:06:08.187Z,93.98
2019-05-09T02:07:08.181Z,93.77
2019-05-09T02:08:08.183Z,93.98
2019-05-09T02:09:08.182Z,94.39
2019-05-09T02:10:08.142Z,94.49
2019-05-09T02:11:08.139Z,94.59
2019-05-09T02:12:08.129Z,94.80
2019-05-09T02:13:08.138Z,95.10
2019-05-09T02:14:08.102Z,95.10
2019-05-09T02:15:08.087Z,95.21
2019-05-09T02:16:08.075Z,95.83
2019-05-09T02:17:08.077Z,95.01
2019-05-09T02:18:08.066Z,94.80
2019-05-09T02:19:08.062Z,96.03
2019-05-09T02:20:08.031Z,95.10
2019-05-09T02:21:11.221Z,95.10
2019-05-09T02:22:08.006Z,95.10
2019-05-09T02:23:08.019Z,95.10
2019-05-09T02:24:08.003Z,95.31
2019-05-09T02:25:07.980Z,95.52
2019-05-09T02:26:07.969Z,95.01
2019-05-09T02:27:07.960Z,95.01
2019-05-09T02:28:07.940Z,94.18
2019-05-09T02:29:07.947Z,94.59
2019-05-09T02:30:07.954Z,94.29
2019-05-09T02:31:07.913Z,94.54
2019-05-09T02:32:07.901Z,94.49
2019-05-09T02:33:07.892Z,94.90
2019-05-09T02:34:07.908Z,94.70
2019-05-09T02:35:07.873Z,94.64
2019-05-09T02:36:09.775Z,94.12
2019-05-09T02:37:09.295Z,94.74
2019-05-09T02:38:09.455Z,94.95
2019-05-09T02:39:09.009Z,94.64
2019-05-09T02:40:09.801Z,94.12
2019-05-09T02:41:08.611Z,94.33
2019-05-09T02:42:10.732Z,94.54
2019-05-09T02:43:09.940Z,94.54
2019-05-09T02:44:09.304Z,94.54
2019-05-09T02:45:08.391Z,94.54
2019-05-09T02:46:09.809Z,94.23
2019-05-09T02:47:09.029Z,94.33
2019-05-09T02:48:09.488Z,93.61
2019-05-09T02:49:08.845Z,94.23
2019-05-09T02:50:08.960Z,93.51
2019-05-09T02:51:09.296Z,94.02
2019-05-09T02:52:08.776Z,93.82
2019-05-09T02:53:08.226Z,94.23
2019-05-09T02:54:09.910Z,94.43
2019-05-09T02:55:09.814Z,94.12
2019-05-09T02:56:09.125Z,94.12
2019-05-09T02:57:09.295Z,94.33
2019-05-09T02:58:08.344Z,94.17
2019-05-09T02:59:09.698Z,94.64
2019-05-09T03:00:08.649Z,94.43
2019-05-09T03:01:08.437Z,94.58
2019-05-09T03:02:09.590Z,94.02
2019-05-09T03:03:09.169Z,93.82
2019-05-09T03:04:08.510Z,94.17
2019-05-09T03:05:08.838Z,94.12
2019-05-09T03:06:09.104Z,94.33
2019-05-09T03:07:09.777Z,94.33
2019-05-09T03:08:08.970Z,94.43
2019-05-09T03:09:08.862Z,94.84
2019-05-09T03:10:08.880Z,94.95
2019-05-09T03:11:09.798Z,95.09
2019-05-09T03:12:22.721Z,94.95
2019-05-09T03:13:09.446Z,95.20
2019-05-09T03:14:09.215Z,95.15
2019-05-09T03:15:09.258Z,94.95
2019-05-09T03:16:08.515Z,95.97
2019-05-09T03:17:08.822Z,95.97
2019-05-09T03:18:08.837Z,96.08
2019-05-09T03:19:09.164Z,95.56
2019-05-09T03:20:09.477Z,95.56
2019-05-09T03:21:09.014Z,96.08
2019-05-09T03:22:08.762Z,95.97
2019-05-09T03:23:09.055Z,96.08
2019-05-09T03:24:09.747Z,95.46
2019-05-09T03:25:09.023Z,95.50
2019-05-09T03:26:09.102Z,96.12
2019-05-09T03:27:08.509Z,94.95
2019-05-09T03:28:09.675Z,94.64
2019-05-09T03:29:08.804Z,94.78
2019-05-09T03:30:12.087Z,95.46
2019-05-09T03:31:09.515Z,96.18
2019-05-09T03:32:09.211Z,95.97
2019-05-09T03:33:10.220Z,96.18
2019-05-09T03:34:09.445Z,95.77
2019-05-09T03:35:08.412Z,95.87
2019-05-09T03:36:07.802Z,95.77
2019-05-09T03:37:08.501Z,95.77
2019-05-09T03:38:08.107Z,95.67
2019-05-09T03:39:08.225Z,95.67
2019-05-09T03:40:07.897Z,95.46
2019-05-09T03:41:08.490Z,95.77
2019-05-09T03:42:07.902Z,95.67
2019-05-09T03:43:07.941Z,95.77
2019-05-09T03:44:07.352Z,95.77
2019-05-09T03:45:08.276Z,95.87
2019-05-09T03:46:07.803Z,95.87
2019-05-09T03:47:08.372Z,96.18
2019-05-09T03:48:07.434Z,95.97
2019-05-09T03:49:07.598Z,95.97
2019-05-09T03:50:08.238Z,96.18
2019-05-09T03:51:08.124Z,95.93
2019-05-09T03:52:07.678Z,95.87
2019-05-09T03:53:08.420Z,95.97
2019-05-09T03:54:08.064Z,95.97
2019-05-09T03:55:07.411Z,96.14
2019-05-09T03:56:07.884Z,96.18
2019-05-09T03:57:07.725Z,96.08
2019-05-09T03:58:07.525Z,95.87
2019-05-09T03:59:08.362Z,95.83
2019-05-09T04:00:07.713Z,95.83
2019-05-09T04:01:10.414Z,96.03
2019-05-09T04:02:09.906Z,95.72
2019-05-09T04:03:08.173Z,95.93
2019-05-09T04:04:08.818Z,96.14
2019-05-09T04:05:08.157Z,95.72
2019-05-09T04:06:08.279Z,95.83
2019-05-09T04:07:08.401Z,95.72
2019-05-09T04:08:07.355Z,95.72
2019-05-09T04:09:07.552Z,96.03
2019-05-09T04:10:07.760Z,96.03
2019-05-09T04:11:08.593Z,96.03
2019-05-09T04:12:07.553Z,96.34
2019-05-09T04:13:08.221Z,96.14
2019-05-09T04:14:08.323Z,95.83
2019-05-09T04:15:08.390Z,96.14
2019-05-09T04:16:07.485Z,96.23
2019-05-09T04:17:07.865Z,95.83
2019-05-09T04:18:08.259Z,94.90
2019-05-09T04:19:08.303Z,94.90
2019-05-09T04:20:08.173Z,95.42
2019-05-09T04:21:08.451Z,96.14
2019-05-09T04:22:08.021Z,95.62
2019-05-09T04:23:07.937Z,95.42
2019-05-09T04:24:08.504Z,95.89
2019-05-09T04:25:08.020Z,95.57
2019-05-09T04:26:07.555Z,95.68
2019-05-09T04:27:07.798Z,95.78
2019-05-09T04:28:07.464Z,95.68
2019-05-09T04:29:08.045Z,96.09
2019-05-09T04:30:09.472Z,95.89
2019-05-09T04:31:07.390Z,96.19
2019-05-09T04:32:07.966Z,95.68
2019-05-09T04:33:07.301Z,95.68
2019-05-09T04:34:07.731Z,95.78
2019-05-09T04:35:08.104Z,94.14
2019-05-09T04:36:08.357Z,94.24
2019-05-09T04:37:08.050Z,94.55
2019-05-09T04:38:07.434Z,94.65
2019-05-09T04:39:07.675Z,94.96
2019-05-09T04:40:08.273Z,94.85
2019-05-09T04:41:07.436Z,94.55
2019-05-09T04:42:08.310Z,94.96
2019-05-09T04:43:12.079Z,94.70
2019-05-09T04:44:14.188Z,94.96
2019-05-09T04:45:10.060Z,95.27
2019-05-09T04:46:08.017Z,95.10
2019-05-09T04:47:08.575Z,95.42
2019-05-09T04:48:07.747Z,95.78
2019-05-09T04:49:08.196Z,94.14
2019-05-09T04:50:07.597Z,94.14
2019-05-09T04:51:07.873Z,93.63
2019-05-09T04:52:07.666Z,93.83
2019-05-09T04:53:08.009Z,94.04
2019-05-09T04:54:07.318Z,94.24
2019-05-09T04:55:07.876Z,94.59
2019-05-09T04:56:07.206Z,93.73
2019-05-09T04:57:07.834Z,94.34
2019-05-09T04:58:06.279Z,94.18
2019-05-09T04:59:07.469Z,94.14
2019-05-09T05:00:07.576Z,93.77
2019-05-09T05:01:07.222Z,93.73
2019-05-09T05:02:08.691Z,94.04
2019-05-09T05:03:07.948Z,93.52
2019-05-09T05:04:07.744Z,93.07
2019-05-09T05:05:07.785Z,92.76
2019-05-09T05:06:07.693Z,93.93
2019-05-09T05:07:07.665Z,93.93
2019-05-09T05:08:07.569Z,94.24
2019-05-09T05:09:07.851Z,94.45
2019-05-09T05:10:08.802Z,92.86
2019-05-09T05:11:07.451Z,92.29
2019-05-09T05:12:08.205Z,92.35
2019-05-09T05:13:07.763Z,92.55
2019-05-09T05:14:09.041Z,91.88
2019-05-09T05:15:08.041Z,92.35
2019-05-09T05:16:08.190Z,92.66
2019-05-09T05:17:10.228Z,94.40
2019-05-09T05:18:08.574Z,93.17
2019-05-09T05:19:07.542Z,92.86
2019-05-09T05:20:08.210Z,92.76
2019-05-09T05:21:07.845Z,92.25
2019-05-09T05:22:07.417Z,91.94
2019-05-09T05:23:08.113Z,91.49
2019-05-09T05:24:08.078Z,91.59
2019-05-09T05:25:06.002Z,92.31
2019-05-09T05:26:05.980Z,91.90
2019-05-09T05:27:08.217Z,91.08
2019-05-09T05:28:08.472Z,91.38
2019-05-09T05:29:08.281Z,91.18
2019-05-09T05:30:07.519Z,92.51
2019-05-09T05:31:07.399Z,91.28
2019-05-09T05:32:08.459Z,90.77
2019-05-09T05:33:07.971Z,90.77
2019-05-09T05:34:08.187Z,90.67
2019-05-09T05:35:07.582Z,89.95
2019-05-09T05:36:07.938Z,90.83
2019-05-09T05:37:07.520Z,91.03
2019-05-09T05:38:08.381Z,91.96
2019-05-09T05:39:07.501Z,91.65
2019-05-09T05:40:07.778Z,90.11
2019-05-09T05:41:07.936Z,91.03
2019-05-09T05:42:08.107Z,91.65
2019-05-09T05:43:08.701Z,92.06
2019-05-09T05:44:05.767Z,92.06
2019-05-09T05:45:07.504Z,91.96
2019-05-09T05:46:07.648Z,91.24
2019-05-09T05:47:07.726Z,89.19
2019-05-09T05:48:07.819Z,89.97
2019-05-09T05:49:07.943Z,87.85
2019-05-09T05:50:08.246Z,88.53
2019-05-09T05:51:07.987Z,87.61
2019-05-09T05:52:07.912Z,88.84
2019-05-09T05:53:07.866Z,90.07
2019-05-09T05:54:07.327Z,89.56
2019-05-09T05:55:07.527Z,90.17
2019-05-09T05:56:05.658Z,89.45
2019-05-09T05:57:05.651Z,90.28
2019-05-09T05:58:05.638Z,87.82
2019-05-09T05:59:05.625Z,87.61
2019-05-09T06:00:07.833Z,87.20
2019-05-09T06:01:08.047Z,87.41
2019-05-09T06:02:07.797Z,87.20
2019-05-09T06:03:05.563Z,88.53
2019-05-09T06:04:07.623Z,89.21
2019-05-09T06:05:05.550Z,90.28
2019-05-09T06:06:05.543Z,90.03
2019-05-09T06:07:07.764Z,90.23
2019-05-09T06:08:08.011Z,91.05
2019-05-09T06:09:05.496Z,89.83
2019-05-09T06:10:08.060Z,87.16
2019-05-09T06:11:09.467Z,85.42
2019-05-09T06:12:08.247Z,85.31
2019-05-09T06:13:07.795Z,87.22
2019-05-09T06:14:11.448Z,85.69
2019-05-09T06:15:07.559Z,85.38
2019-05-09T06:16:05.436Z,85.48
2019-05-09T06:17:07.627Z,87.43
2019-05-09T06:18:07.759Z,85.28
2019-05-09T06:19:05.392Z,84.77
2019-05-09T06:20:05.394Z,85.48
2019-05-09T06:21:05.365Z,85.38
2019-05-09T06:22:07.908Z,85.48
2019-05-09T06:23:05.350Z,86.10
2019-05-09T06:24:05.325Z,85.58
2019-05-09T06:25:09.205Z,85.79
2019-05-09T06:26:09.399Z,85.99
2019-05-09T06:27:09.846Z,85.28
2019-05-09T06:28:07.499Z,86.30
2019-05-09T06:29:05.275Z,85.99
2019-05-09T06:30:05.261Z,85.79
2019-05-09T06:31:07.412Z,85.38
2019-05-09T06:32:07.587Z,86.30
2019-05-09T06:33:05.495Z,86.30
2019-05-09T06:34:05.222Z,87.12
2019-05-09T06:35:05.224Z,87.32
2019-05-09T06:36:07.805Z,88.45
2019-05-09T06:37:08.621Z,87.84
2019-05-09T06:38:07.687Z,87.29
2019-05-09T06:39:05.172Z,85.48
2019-05-09T06:40:05.175Z,85.69
2019-05-09T06:41:05.145Z,85.55
2019-05-09T06:42:05.158Z,85.79
2019-05-09T06:43:07.928Z,85.79
2019-05-09T06:44:14.269Z,86.51
2019-05-09T06:45:07.758Z,86.26
2019-05-09T06:46:05.089Z,85.75
2019-05-09T06:47:05.101Z,85.24
2019-05-09T06:48:07.419Z,83.23
2019-05-09T06:49:21.460Z,83.50
2019-05-09T06:50:07.970Z,84.22
2019-05-09T06:51:07.186Z,85.55
2019-05-09T06:52:05.037Z,84.25
2019-05-09T06:53:05.026Z,84.97
2019-05-09T06:54:05.027Z,85.85
2019-05-09T06:55:04.991Z,86.46
2019-05-09T06:56:07.269Z,86.16
2019-05-09T06:57:04.986Z,85.75
2019-05-09T06:58:04.954Z,85.14
2019-05-09T06:59:04.945Z,85.14
2019-05-09T07:00:04.935Z,87.29
2019-05-09T07:01:04.920Z,85.75
2019-05-09T07:02:04.937Z,87.08
2019-05-09T07:03:04.897Z,86.05
2019-05-09T07:04:04.886Z,84.52
2019-05-09T07:05:04.872Z,84.11
2019-05-09T07:06:04.870Z,85.14
2019-05-09T07:07:07.778Z,85.03
2019-05-09T07:08:04.844Z,84.87
2019-05-09T07:09:04.828Z,84.66
2019-05-09T07:10:04.820Z,84.52
2019-05-09T07:11:04.814Z,85.58
2019-05-09T07:12:04.812Z,85.55
2019-05-09T07:13:04.802Z,85.58
2019-05-09T07:14:04.772Z,86.30
2019-05-09T07:15:04.762Z,86.81
2019-05-09T07:16:04.758Z,85.24
2019-05-09T07:17:04.758Z,85.14
2019-05-09T07:18:04.772Z,85.38
2019-05-09T07:19:04.749Z,86.16
2019-05-09T07:20:04.721Z,85.48
2019-05-09T07:21:04.698Z,85.17
2019-05-09T07:22:04.685Z,86.10
2019-05-09T07:23:04.704Z,87.32
2019-05-09T07:24:04.671Z,85.79
2019-05-09T07:25:07.683Z,85.99
2019-05-09T07:26:07.573Z,85.28
2019-05-09T07:27:04.649Z,85.69
2019-05-09T07:28:04.639Z,85.99
2019-05-09T07:29:04.612Z,85.28
2019-05-09T07:30:04.602Z,86.10
2019-05-09T07:31:04.597Z,86.10
2019-05-09T07:32:04.575Z,87.43
2019-05-09T07:33:04.579Z,87.12
2019-05-09T07:34:04.556Z,87.22
2019-05-09T07:35:04.546Z,87.22
2019-05-09T07:36:04.532Z,87.02
2019-05-09T07:37:04.535Z,86.16
2019-05-09T07:38:04.531Z,87.22
2019-05-09T07:39:04.497Z,87.73
2019-05-09T07:40:04.491Z,89.17
2019-05-09T07:41:04.508Z,88.24
2019-05-09T07:42:04.466Z,88.92
2019-05-09T07:43:04.475Z,87.79
2019-05-09T07:44:04.458Z,87.29
2019-05-09T07:45:04.429Z,87.18
2019-05-09T07:46:04.421Z,88.86
2019-05-09T07:47:04.413Z,88.82
2019-05-09T07:48:04.424Z,90.05
2019-05-09T07:49:04.394Z,91.07
2019-05-09T07:50:04.399Z,90.56
2019-05-09T07:51:04.367Z,90.05
2019-05-09T07:52:09.434Z,89.89
2019-05-09T07:53:05.363Z,88.86
2019-05-09T07:54:18.300Z,89.58
2019-05-09T07:55:05.329Z,90.50
2019-05-09T07:56:04.312Z,89.89
2019-05-09T07:57:04.305Z,90.19
2019-05-09T07:58:04.290Z,90.81
2019-05-09T07:59:04.298Z,90.19
2019-05-09T08:00:04.274Z,90.81
2019-05-09T08:01:04.259Z,91.83
2019-05-09T08:02:04.259Z,92.14
2019-05-09T08:03:04.240Z,92.14
2019-05-09T08:04:04.242Z,92.18
2019-05-09T08:05:04.218Z,91.83
2019-05-09T08:06:04.213Z,92.34
2019-05-09T08:07:04.194Z,92.03
2019-05-09T08:08:04.190Z,92.44
2019-05-09T08:09:04.193Z,92.85
2019-05-09T08:10:04.170Z,94.08
2019-05-09T08:11:04.150Z,92.75
2019-05-09T08:12:04.142Z,93.26
2019-05-09T08:13:07.856Z,93.22
2019-05-09T08:14:04.136Z,93.98
2019-05-09T08:15:13.703Z,93.47
2019-05-09T08:16:05.100Z,93.73
2019-05-09T08:17:04.088Z,93.84
2019-05-09T08:18:04.082Z,93.63
2019-05-09T08:19:04.086Z,93.43
2019-05-09T08:20:04.051Z,93.43
2019-05-09T08:21:04.045Z,93.93
2019-05-09T08:22:04.033Z,94.55
2019-05-09T08:23:04.024Z,94.04
2019-05-09T08:24:04.040Z,94.40
2019-05-09T08:25:03.998Z,95.63
2019-05-09T08:26:04.676Z,94.10
2019-05-09T08:27:03.974Z,94.40
2019-05-09T08:28:03.977Z,94.30
2019-05-09T08:29:03.978Z,94.14
2019-05-09T08:30:03.946Z,93.89
2019-05-09T08:31:03.936Z,94.04
2019-05-09T08:32:03.927Z,93.79
2019-05-09T08:33:03.910Z,92.30
2019-05-09T08:34:03.916Z,92.25
2019-05-09T08:35:03.909Z,93.93
2019-05-09T08:36:03.893Z,94.14
2019-05-09T08:37:03.888Z,93.48
2019-05-09T08:38:03.871Z,93.89
2019-05-09T08:39:03.853Z,94.30
2019-05-09T08:40:03.863Z,93.89
2019-05-09T08:41:03.833Z,94.30
2019-05-09T08:42:03.814Z,94.51
2019-05-09T08:43:03.799Z,94.51
2019-05-09T08:44:03.796Z,94.30
2019-05-09T08:45:03.805Z,94.71
2019-05-09T08:46:03.787Z,95.12
2019-05-09T08:47:03.772Z,95.53
2019-05-09T08:48:03.750Z,95.53
2019-05-09T08:49:03.738Z,94.40
2019-05-09T08:50:03.811Z,93.79
2019-05-09T08:51:03.727Z,93.89
2019-05-09T08:52:15.009Z,92.25
2019-05-09T08:53:04.696Z,93.59
2019-05-09T08:54:03.720Z,93.69
2019-05-09T08:55:03.698Z,93.79
2019-05-09T08:56:03.678Z,94.10
2019-05-09T08:57:03.671Z,93.07
2019-05-09T08:58:03.650Z,93.28
2019-05-09T08:59:03.643Z,93.89
2019-05-09T09:00:03.625Z,93.73
2019-05-09T09:01:04.622Z,93.48
2019-05-09T09:02:15.214Z,93.59
2019-05-09T09:03:04.588Z,93.59
2019-05-09T09:04:03.582Z,93.99
2019-05-09T09:05:03.568Z,94.51
2019-05-09T09:06:03.573Z,95.22
2019-05-09T09:07:03.545Z,95.32
2019-05-09T09:08:03.530Z,95.22
2019-05-09T09:09:03.528Z,95.02
2019-05-09T09:10:03.515Z,95.89
2019-05-09T09:11:03.536Z,95.48
2019-05-09T09:12:03.499Z,95.59
2019-05-09T09:13:03.485Z,93.59
2019-05-09T09:14:03.476Z,94.10
2019-05-09T09:15:03.477Z,94.81
2019-05-09T09:16:14.986Z,95.53
2019-05-09T09:17:04.439Z,95.18
2019-05-09T09:18:03.424Z,95.53
2019-05-09T09:19:03.433Z,95.28
2019-05-09T09:20:03.404Z,95.43
2019-05-09T09:21:03.423Z,95.32
2019-05-09T09:22:03.392Z,94.30
2019-05-09T09:23:03.374Z,94.30
2019-05-09T09:24:03.364Z,95.32
2019-05-09T09:25:03.349Z,95.59
2019-05-09T09:26:03.353Z,95.73
2019-05-09T09:27:03.330Z,93.69
2019-05-09T09:28:03.325Z,93.69
2019-05-09T09:29:03.359Z,93.28
2019-05-09T09:30:16.439Z,95.43
2019-05-09T09:31:04.300Z,95.69
2019-05-09T09:32:03.297Z,95.69
2019-05-09T09:33:03.266Z,95.28
2019-05-09T09:34:03.264Z,95.38
2019-05-09T09:35:03.258Z,96.51
2019-05-09T09:36:03.236Z,96.20
2019-05-09T09:37:06.421Z,95.38
2019-05-09T09:38:04.245Z,95.79
2019-05-09T09:39:03.269Z,95.59
2019-05-09T09:40:03.184Z,95.85
2019-05-09T09:41:03.179Z,96.15
2019-05-09T09:42:03.186Z,93.85
2019-05-09T09:43:03.156Z,94.11
2019-05-09T09:44:03.146Z,95.34
2019-05-09T09:45:03.137Z,95.85
2019-05-09T09:46:10.958Z,95.95
2019-05-09T09:47:04.131Z,95.95
2019-05-09T09:48:03.104Z,96.05
2019-05-09T09:49:03.088Z,96.15
2019-05-09T09:50:03.129Z,96.56
2019-05-09T09:51:03.066Z,96.87
2019-05-09T09:52:03.107Z,95.39
2019-05-09T09:53:03.065Z,95.19
2019-05-09T09:54:03.038Z,93.05
2019-05-09T09:55:03.036Z,94.48
2019-05-09T09:56:03.051Z,95.50
2019-05-09T09:57:03.025Z,94.89
2019-05-09T09:58:02.990Z,93.55
2019-05-09T09:59:02.984Z,93.66
2019-05-09T10:00:02.986Z,94.89
2019-05-09T10:01:03.762Z,95.39
2019-05-09T10:02:02.999Z,93.25
2019-05-09T10:03:02.963Z,95.29
2019-05-09T10:04:16.670Z,93.96
2019-05-09T10:05:03.947Z,93.45
2019-05-09T10:06:02.903Z,93.25
2019-05-09T10:07:02.898Z,92.64
2019-05-09T10:08:02.905Z,91.52
2019-05-09T10:09:02.869Z,92.13
2019-05-09T10:10:02.864Z,92.64
2019-05-09T10:11:02.847Z,93.45
2019-05-09T10:12:02.856Z,93.66
2019-05-09T10:13:04.145Z,93.66
2019-05-09T10:14:02.820Z,93.66
2019-05-09T10:15:02.812Z,92.07
2019-05-09T10:16:02.798Z,93.76
2019-05-09T10:17:02.838Z,93.86
2019-05-09T10:18:02.787Z,93.60
2019-05-09T10:19:02.800Z,94.42
2019-05-09T10:20:02.748Z,94.21
2019-05-09T10:21:02.756Z,93.91
2019-05-09T10:22:02.730Z,91.46
2019-05-09T10:23:11.031Z,92.68
2019-05-09T10:24:03.722Z,93.50
2019-05-09T10:25:02.701Z,93.40
2019-05-09T10:26:02.704Z,92.47
2019-05-09T10:27:02.681Z,92.47
2019-05-09T10:28:02.666Z,93.40
2019-05-09T10:29:02.679Z,94.15
2019-05-09T10:30:02.647Z,93.40
2019-05-09T10:31:02.640Z,93.74
2019-05-09T10:32:02.633Z,93.19
2019-05-09T10:33:02.614Z,92.21
2019-05-09T10:34:02.664Z,91.70
2019-05-09T10:35:02.598Z,92.32
2019-05-09T10:36:04.712Z,92.42
2019-05-09T10:37:02.572Z,93.33
2019-05-09T10:38:02.560Z,93.85
2019-05-09T10:39:02.568Z,94.26
2019-05-09T10:40:02.556Z,95.34
2019-05-09T10:41:02.544Z,94.82
2019-05-09T10:42:02.516Z,95.23
2019-05-09T10:43:02.510Z,95.95
2019-05-09T10:44:02.510Z,95.85
2019-05-09T10:45:02.480Z,93.60
2019-05-09T10:46:02.478Z,95.44
2019-05-09T10:47:02.578Z,95.23
2019-05-09T10:48:02.450Z,95.23
2019-05-09T10:49:02.461Z,95.34
2019-05-09T10:50:02.426Z,95.95
2019-05-09T10:51:05.576Z,96.62
2019-05-09T10:52:03.402Z,96.11
2019-05-09T10:53:02.529Z,94.11
2019-05-09T10:54:02.407Z,93.55
2019-05-09T10:55:02.382Z,94.58
2019-05-09T10:56:02.374Z,95.39
2019-05-09T10:57:02.353Z,94.68
2019-05-09T10:58:02.714Z,94.07
2019-05-09T10:59:02.377Z,95.29
2019-05-09T11:00:02.506Z,93.19
2019-05-09T11:01:02.320Z,94.01
2019-05-09T11:02:02.296Z,93.91
2019-05-09T11:03:02.286Z,93.09
2019-05-09T11:04:02.279Z,94.42
2019-05-09T11:05:02.290Z,93.70
2019-05-09T11:06:02.263Z,93.55
2019-05-09T11:07:02.266Z,93.29
2019-05-09T11:08:02.267Z,93.80
2019-05-09T11:09:02.325Z,93.40
2019-05-09T11:10:02.224Z,92.17
2019-05-09T11:11:05.743Z,92.27
2019-05-09T11:12:02.199Z,92.58
2019-05-09T11:13:02.203Z,91.96
2019-05-09T11:14:02.190Z,93.50
2019-05-09T11:15:02.179Z,93.80
2019-05-09T11:16:02.178Z,92.47
2019-05-09T11:17:09.932Z,93.45
2019-05-09T11:18:03.136Z,91.96
2019-05-09T11:19:02.114Z,92.07
2019-05-09T11:20:02.139Z,93.19
2019-05-09T11:21:02.100Z,93.80
2019-05-09T11:22:02.120Z,93.09
2019-05-09T11:23:02.074Z,92.27
2019-05-09T11:24:02.070Z,93.50
2019-05-09T11:25:02.077Z,93.40
2019-05-09T11:26:02.041Z,92.58
2019-05-09T11:27:02.083Z,92.17
2019-05-09T11:28:10.400Z,91.96
2019-05-09T11:29:03.006Z,93.70
2019-05-09T11:30:02.008Z,93.91
2019-05-09T11:31:01.989Z,93.60
2019-05-09T11:32:01.984Z,93.80
2019-05-09T11:33:01.970Z,93.70
2019-05-09T11:34:01.958Z,93.70
2019-05-09T11:35:01.967Z,94.42
2019-05-09T11:36:01.935Z,95.39
2019-05-09T11:37:01.926Z,95.29
2019-05-09T11:38:01.908Z,95.29
2019-05-09T11:39:02.186Z,95.39
2019-05-09T11:40:01.905Z,95.19
2019-05-09T11:41:01.885Z,95.39
2019-05-09T11:42:01.873Z,96.21
2019-05-09T11:43:01.853Z,96.11
2019-05-09T11:44:01.870Z,96.42
2019-05-09T11:45:01.884Z,96.42
2019-05-09T11:46:01.892Z,95.15
2019-05-09T11:47:01.825Z,95.56
2019-05-09T11:48:01.814Z,95.45
2019-05-09T11:49:01.783Z,95.96
2019-05-09T11:50:01.825Z,96.51
2019-05-09T11:51:01.772Z,95.96
2019-05-09T11:52:01.766Z,96.06
2019-05-09T11:53:01.753Z,95.96
2019-05-09T11:54:01.728Z,95.65
2019-05-09T11:55:01.715Z,95.45
2019-05-09T11:56:01.752Z,96.06
2019-05-09T11:57:01.721Z,95.35
2019-05-09T11:58:01.682Z,95.56
2019-05-09T11:59:01.684Z,94.23
2019-05-09T12:00:01.680Z,94.33
2019-05-09T12:01:02.924Z,95.20
2019-05-09T12:02:01.647Z,95.35
2019-05-09T12:03:01.636Z,95.15
2019-05-09T12:04:01.616Z,95.56
2019-05-09T12:05:01.626Z,95.35
2019-05-09T12:06:01.611Z,95.41
2019-05-09T12:07:01.583Z,95.15
2019-05-09T12:08:01.577Z,95.45
2019-05-09T12:09:01.574Z,94.84
2019-05-09T12:10:01.567Z,95.45
2019-05-09T12:11:01.562Z,95.25
2019-05-09T12:12:01.541Z,93.71
2019-05-09T12:13:01.536Z,94.33
2019-05-09T12:14:01.525Z,95.56
2019-05-09T12:15:01.510Z,95.45
2019-05-09T12:16:01.591Z,95.31
2019-05-09T12:17:01.522Z,95.35
2019-05-09T12:18:07.526Z,94.94
2019-05-09T12:19:02.455Z,95.10
2019-05-09T12:20:09.611Z,95.20
2019-05-09T12:21:02.430Z,93.51
2019-05-09T12:22:01.465Z,94.53
2019-05-09T12:23:01.427Z,94.12
2019-05-09T12:24:01.413Z,93.41
2019-05-09T12:25:01.394Z,93.82
2019-05-09T12:26:01.379Z,93.47
2019-05-09T12:27:03.118Z,94.53
2019-05-09T12:28:01.381Z,92.69
2019-05-09T12:29:01.374Z,93.62
2019-05-09T12:30:01.372Z,93.92
2019-05-09T12:31:01.359Z,92.39
2019-05-09T12:32:01.394Z,93.10
2019-05-09T12:33:01.314Z,94.23
2019-05-09T12:34:01.316Z,93.71
2019-05-09T12:35:01.370Z,94.02
2019-05-09T12:36:01.321Z,94.33
2019-05-09T12:37:01.281Z,95.20
2019-05-09T12:38:01.289Z,95.20
2019-05-09T12:39:01.236Z,95.20
2019-05-09T12:40:01.245Z,93.67
2019-05-09T12:41:01.228Z,93.67
2019-05-09T12:42:01.254Z,93.77
2019-05-09T12:43:01.224Z,93.47
2019-05-09T12:44:01.207Z,93.73
2019-05-09T12:45:01.180Z,93.12
2019-05-09T12:46:01.168Z,93.12
2019-05-09T12:47:01.161Z,93.22
2019-05-09T12:48:10.564Z,92.50
2019-05-09T12:49:02.135Z,91.65
2019-05-09T12:50:02.897Z,92.16
2019-05-09T12:51:01.116Z,92.36
2019-05-09T12:52:01.149Z,92.16